Clovis ASC Data

Date Time Air Temperature Relative Humidity Wind Speed Wind Dir. Rain Solar Radiation Soil Temperature
2m 2m 3m 3m 10cm
US/Mountain F % MPH deg in MJ/m^2 F
max min avg max min avg max avg avg max min avg
2019-12-14 01:00:00 40.4 33.3 37.2 63.3 45.7 53.2 6.3 4.3 345.7 0.00 0.0000000 43.8 43.1 43.4
2019-12-14 02:00:00 38.6 32.0 35.8 68.2 53.2 58.2 6.3 3.4 24.2 0.00 0.0000000 43.1 42.5 42.8
2019-12-14 03:00:00 37.0 33.7 35.4 63.1 58.5 60.5 6.5 3.6 57.0 0.00 0.0000000 42.5 41.8 42.2
2019-12-14 04:00:00 36.2 31.8 33.1 72.7 58.9 68.6 7.4 4.5 75.7 0.00 0.0000000 41.8 41.3 41.6
2019-12-14 05:00:00 35.7 32.4 34.4 71.4 64.2 66.7 8.1 5.5 134.1 0.00 0.0000000 41.3 40.8 41.1
2019-12-14 06:00:00 35.1 32.3 33.8 71.4 65.4 68.3 9.2 5.4 136.3 0.00 0.0000000 40.8 40.4 40.6
2019-12-14 07:00:00 33.4 31.5 32.6 72.9 69.9 71.0 6.5 4.1 119.7 0.00 0.0067214 40.4 39.9 40.2
2019-12-14 08:00:00 37.7 32.5 34.9 72.2 61.0 67.3 11.0 6.7 148.2 0.00 0.3152182 39.9 39.5 39.7
2019-12-14 09:00:00 42.5 37.5 40.0 62.2 53.7 57.3 12.2 8.6 143.2 0.00 0.8807164 39.6 39.5 39.5
2019-12-14 10:00:00 46.5 42.1 44.8 56.4 48.8 52.4 16.5 11.7 156.0 0.00 1.3974960 40.5 39.6 39.9
2019-12-14 11:00:00 51.5 46.0 48.7 50.6 40.0 45.2 16.7 12.3 174.5 0.00 1.7321430 42.4 40.5 41.4
2019-12-14 12:00:00 56.6 51.2 54.1 42.7 32.8 35.9 17.2 12.1 199.9 0.00 1.8847050 43.9 42.4 43.2
2019-12-14 13:00:00 61.7 56.1 58.8 34.7 30.4 32.2 21.7 12.5 226.5 0.00 1.8478330 46.0 43.9 44.9
2019-12-14 14:00:00 64.4 60.4 62.9 33.3 29.8 31.5 23.3 13.2 235.2 0.00 1.6027380 48.2 46.0 47.1
2019-12-14 15:00:00 64.9 63.1 64.1 33.3 31.2 32.2 26.2 16.9 238.3 0.00 1.1823770 49.6 48.2 49.0
2019-12-14 16:00:00 64.8 62.3 63.8 34.7 31.2 32.7 23.7 16.5 246.7 0.00 0.6499235 49.7 49.6 49.7
2019-12-14 17:00:00 62.6 51.2 57.9 53.5 34.4 41.5 16.9 8.3 273.2 0.00 0.0983793 49.8 49.7 49.8
2019-12-14 18:00:00 51.4 42.8 47.1 65.4 50.1 57.5 5.3 4.1 279.3 0.00 0.0001568 49.7 48.9 49.4
2019-12-14 19:00:00 45.9 42.6 44.0 66.2 58.8 62.8 8.3 5.0 266.9 0.00 0.0000000 48.9 47.9 48.4
2019-12-14 20:00:00 44.7 42.3 43.6 64.4 60.7 62.2 6.0 4.2 242.2 0.00 0.0000000 47.9 47.0 47.5
2019-12-14 21:00:00 45.7 41.2 43.0 69.4 56.9 63.0 5.3 4.2 279.9 0.00 0.0000000 47.0 46.2 46.6
2019-12-14 22:00:00 43.7 38.9 41.5 72.4 64.4 68.2 6.3 5.0 259.1 0.00 0.0000000 46.2 45.5 45.8
2019-12-14 23:00:00 41.2 38.4 39.6 74.9 67.7 71.6 6.7 5.4 274.4 0.00 0.0000000 45.5 44.9 45.2
2019-12-15 00:00:00 40.8 37.5 39.2 77.5 69.7 73.1 7.6 5.8 269.4 0.00 0.0000000 44.9 44.2 44.5

Data is courtesy of the NM Climate Center. DO NOT USE IN LEGAL PROCEEDINGS.